sensor_id;sensor_type;location;lat;lon;timestamp;pressure;altitude;pressure_sealevel;temperature
79089;BMP280;68489;50.286;9.452;2023-04-30T00:01:57;97849.03;;;9.09
79089;BMP280;68489;50.286;9.452;2023-04-30T00:04:22;97847.22;;;9.06
79089;BMP280;68489;50.286;9.452;2023-04-30T00:06:47;97848.41;;;9.02
79089;BMP280;68489;50.286;9.452;2023-04-30T00:09:12;97850.41;;;8.98
79089;BMP280;68489;50.286;9.452;2023-04-30T00:11:37;97844.41;;;8.94
79089;BMP280;68489;50.286;9.452;2023-04-30T00:14:03;97841.00;;;8.93
79089;BMP280;68489;50.286;9.452;2023-04-30T00:16:28;97852.38;;;8.94
79089;BMP280;68489;50.286;9.452;2023-04-30T00:18:53;97849.44;;;8.88
79089;BMP280;68489;50.286;9.452;2023-04-30T00:21:18;97852.91;;;8.85
79089;BMP280;68489;50.286;9.452;2023-04-30T00:23:44;97849.16;;;8.82
79089;BMP280;68489;50.286;9.452;2023-04-30T00:26:09;97848.84;;;8.80
79089;BMP280;68489;50.286;9.452;2023-04-30T00:28:34;97847.69;;;8.81
79089;BMP280;68489;50.286;9.452;2023-04-30T00:30:59;97848.84;;;8.80
79089;BMP280;68489;50.286;9.452;2023-04-30T00:33:25;97849.59;;;8.81
79089;BMP280;68489;50.286;9.452;2023-04-30T00:35:50;97849.97;;;8.79
79089;BMP280;68489;50.286;9.452;2023-04-30T00:38:15;97850.41;;;8.78
79089;BMP280;68489;50.286;9.452;2023-04-30T00:40:42;97853.09;;;8.74
79089;BMP280;68489;50.286;9.452;2023-04-30T00:43:07;97845.56;;;8.73
79089;BMP280;68489;50.286;9.452;2023-04-30T00:45:32;97845.97;;;8.71
79089;BMP280;68489;50.286;9.452;2023-04-30T00:47:58;97844.84;;;8.72
79089;BMP280;68489;50.286;9.452;2023-04-30T00:50:24;97846.31;;;8.73
79089;BMP280;68489;50.286;9.452;2023-04-30T00:52:49;97850.47;;;8.74
79089;BMP280;68489;50.286;9.452;2023-04-30T00:55:15;97847.88;;;8.71
79089;BMP280;68489;50.286;9.452;2023-04-30T00:57:41;97850.88;;;8.73
79089;BMP280;68489;50.286;9.452;2023-04-30T01:00:07;97852.44;;;8.70
79089;BMP280;68489;50.286;9.452;2023-04-30T01:02:38;97851.34;;;8.68
79089;BMP280;68489;50.286;9.452;2023-04-30T01:05:05;97853.66;;;8.65
79089;BMP280;68489;50.286;9.452;2023-04-30T01:07:31;97853.31;;;8.63
79089;BMP280;68489;50.286;9.452;2023-04-30T01:09:56;97858.66;;;8.60
79089;BMP280;68489;50.286;9.452;2023-04-30T01:12:25;97856.44;;;8.58
79089;BMP280;68489;50.286;9.452;2023-04-30T01:15:13;97858.03;;;8.52
79089;BMP280;68489;50.286;9.452;2023-04-30T01:17:47;97865.59;;;8.54
79089;BMP280;68489;50.286;9.452;2023-04-30T01:20:15;97868.31;;;8.50
79089;BMP280;68489;50.286;9.452;2023-04-30T01:23:10;97864.22;;;8.46
79089;BMP280;68489;50.286;9.452;2023-04-30T01:28:08;97874.47;;;8.44
79089;BMP280;68489;50.286;9.452;2023-04-30T01:30:34;97864.59;;;8.48
79089;BMP280;68489;50.286;9.452;2023-04-30T01:33:00;97865.31;;;8.48
79089;BMP280;68489;50.286;9.452;2023-04-30T01:41:39;97874.56;;;8.60
79089;BMP280;68489;50.286;9.452;2023-04-30T01:46:37;97874.28;;;8.78
79089;BMP280;68489;50.286;9.452;2023-04-30T01:49:16;97882.91;;;8.82
79089;BMP280;68489;50.286;9.452;2023-04-30T01:51:44;97885.16;;;8.83
79089;BMP280;68489;50.286;9.452;2023-04-30T01:54:37;97888.50;;;8.87
79089;BMP280;68489;50.286;9.452;2023-04-30T01:57:06;97881.59;;;8.90
79089;BMP280;68489;50.286;9.452;2023-04-30T01:59:35;97888.00;;;8.93
79089;BMP280;68489;50.286;9.452;2023-04-30T02:02:02;97891.41;;;8.93
79089;BMP280;68489;50.286;9.452;2023-04-30T02:04:27;97886.84;;;8.94
79089;BMP280;68489;50.286;9.452;2023-04-30T02:06:52;97884.91;;;8.98
79089;BMP280;68489;50.286;9.452;2023-04-30T02:09:17;97890.84;;;9.02
79089;BMP280;68489;50.286;9.452;2023-04-30T02:11:43;97891.47;;;9.09
79089;BMP280;68489;50.286;9.452;2023-04-30T02:14:08;97885.69;;;9.14
79089;BMP280;68489;50.286;9.452;2023-04-30T02:16:33;97887.66;;;9.10
79089;BMP280;68489;50.286;9.452;2023-04-30T02:18:59;97888.50;;;9.07
79089;BMP280;68489;50.286;9.452;2023-04-30T02:21:24;97889.22;;;9.08
79089;BMP280;68489;50.286;9.452;2023-04-30T02:23:49;97892.31;;;9.06
79089;BMP280;68489;50.286;9.452;2023-04-30T02:26:15;97895.03;;;9.03
79089;BMP280;68489;50.286;9.452;2023-04-30T02:28:40;97898.00;;;9.05
79089;BMP280;68489;50.286;9.452;2023-04-30T02:31:06;97889.38;;;9.01
79089;BMP280;68489;50.286;9.452;2023-04-30T02:33:31;97891.56;;;9.06
79089;BMP280;68489;50.286;9.452;2023-04-30T02:35:58;97891.88;;;9.08
79089;BMP280;68489;50.286;9.452;2023-04-30T02:38:24;97887.38;;;9.05
79089;BMP280;68489;50.286;9.452;2023-04-30T02:40:49;97886.25;;;9.06
79089;BMP280;68489;50.286;9.452;2023-04-30T02:43:14;97881.53;;;8.94
79089;BMP280;68489;50.286;9.452;2023-04-30T02:45:39;97882.97;;;8.98
79089;BMP280;68489;50.286;9.452;2023-04-30T02:48:05;97886.28;;;9.02
79089;BMP280;68489;50.286;9.452;2023-04-30T02:50:30;97887.00;;;9.06
79089;BMP280;68489;50.286;9.452;2023-04-30T02:52:56;97885.16;;;9.03
79089;BMP280;68489;50.286;9.452;2023-04-30T02:55:21;97887.59;;;8.94
79089;BMP280;68489;50.286;9.452;2023-04-30T02:57:46;97884.19;;;8.94
79089;BMP280;68489;50.286;9.452;2023-04-30T03:00:12;97887.28;;;8.88
79089;BMP280;68489;50.286;9.452;2023-04-30T03:02:37;97887.00;;;8.86
79089;BMP280;68489;50.286;9.452;2023-04-30T03:05:03;97888.81;;;8.89
79089;BMP280;68489;50.286;9.452;2023-04-30T03:07:28;97888.91;;;8.86
79089;BMP280;68489;50.286;9.452;2023-04-30T03:09:53;97888.91;;;8.86
79089;BMP280;68489;50.286;9.452;2023-04-30T03:12:18;97891.94;;;8.84
79089;BMP280;68489;50.286;9.452;2023-04-30T03:14:44;97895.06;;;8.79
79089;BMP280;68489;50.286;9.452;2023-04-30T03:17:09;97888.00;;;8.73
79089;BMP280;68489;50.286;9.452;2023-04-30T03:19:34;97882.69;;;8.73
79089;BMP280;68489;50.286;9.452;2023-04-30T03:21:59;97890.97;;;8.75
79089;BMP280;68489;50.286;9.452;2023-04-30T03:24:24;97886.16;;;8.70
79089;BMP280;68489;50.286;9.452;2023-04-30T03:26:50;97890.28;;;8.71
79089;BMP280;68489;50.286;9.452;2023-04-30T03:29:16;97887.44;;;8.61
79089;BMP280;68489;50.286;9.452;2023-04-30T03:31:41;97885.69;;;8.51
79089;BMP280;68489;50.286;9.452;2023-04-30T03:34:06;97893.66;;;8.51
79089;BMP280;68489;50.286;9.452;2023-04-30T03:36:32;97888.81;;;8.46
79089;BMP280;68489;50.286;9.452;2023-04-30T03:38:57;97895.16;;;8.29
79089;BMP280;68489;50.286;9.452;2023-04-30T03:41:23;97900.19;;;8.23
79089;BMP280;68489;50.286;9.452;2023-04-30T03:43:48;97891.19;;;8.17
79089;BMP280;68489;50.286;9.452;2023-04-30T03:46:13;97896.94;;;8.12
79089;BMP280;68489;50.286;9.452;2023-04-30T03:48:39;97904.25;;;8.04
79089;BMP280;68489;50.286;9.452;2023-04-30T03:51:04;97892.19;;;8.00
79089;BMP280;68489;50.286;9.452;2023-04-30T03:53:29;97894.16;;;7.96
79089;BMP280;68489;50.286;9.452;2023-04-30T03:55:54;97901.44;;;7.88
79089;BMP280;68489;50.286;9.452;2023-04-30T03:58:20;97902.22;;;7.85
79089;BMP280;68489;50.286;9.452;2023-04-30T04:00:46;97892.91;;;7.77
79089;BMP280;68489;50.286;9.452;2023-04-30T04:03:12;97899.84;;;7.67
79089;BMP280;68489;50.286;9.452;2023-04-30T04:05:37;97904.38;;;7.66
79089;BMP280;68489;50.286;9.452;2023-04-30T04:08:03;97899.50;;;7.65
79089;BMP280;68489;50.286;9.452;2023-04-30T04:10:28;97898.88;;;7.54
79089;BMP280;68489;50.286;9.452;2023-04-30T04:12:54;97899.13;;;7.63
79089;BMP280;68489;50.286;9.452;2023-04-30T04:15:19;97901.13;;;7.55
79089;BMP280;68489;50.286;9.452;2023-04-30T04:17:44;97895.25;;;7.40
79089;BMP280;68489;50.286;9.452;2023-04-30T04:20:10;97891.50;;;7.38
79089;BMP280;68489;50.286;9.452;2023-04-30T04:22:35;97907.84;;;7.29
79089;BMP280;68489;50.286;9.452;2023-04-30T04:25:00;97907.19;;;7.22
79089;BMP280;68489;50.286;9.452;2023-04-30T04:27:26;97905.81;;;7.10
79089;BMP280;68489;50.286;9.452;2023-04-30T04:29:51;97910.78;;;7.04
79089;BMP280;68489;50.286;9.452;2023-04-30T04:32:18;97910.88;;;6.93
79089;BMP280;68489;50.286;9.452;2023-04-30T04:34:43;97918.44;;;6.95
79089;BMP280;68489;50.286;9.452;2023-04-30T04:37:09;97919.56;;;6.94
79089;BMP280;68489;50.286;9.452;2023-04-30T04:39:35;97913.53;;;6.93
79089;BMP280;68489;50.286;9.452;2023-04-30T04:42:01;97920.28;;;6.98
79089;BMP280;68489;50.286;9.452;2023-04-30T04:44:26;97924.75;;;7.05
79089;BMP280;68489;50.286;9.452;2023-04-30T04:46:53;97925.00;;;7.17
79089;BMP280;68489;50.286;9.452;2023-04-30T04:49:18;97919.97;;;7.27
79089;BMP280;68489;50.286;9.452;2023-04-30T04:51:43;97925.53;;;7.36
79089;BMP280;68489;50.286;9.452;2023-04-30T04:54:09;97923.94;;;7.46
79089;BMP280;68489;50.286;9.452;2023-04-30T04:56:34;97917.03;;;7.52
79089;BMP280;68489;50.286;9.452;2023-04-30T04:58:59;97915.00;;;7.63
79089;BMP280;68489;50.286;9.452;2023-04-30T05:01:25;97917.97;;;7.68
79089;BMP280;68489;50.286;9.452;2023-04-30T05:03:51;97919.38;;;7.77
79089;BMP280;68489;50.286;9.452;2023-04-30T05:06:17;97925.16;;;7.95
79089;BMP280;68489;50.286;9.452;2023-04-30T05:08:42;97922.84;;;7.97
79089;BMP280;68489;50.286;9.452;2023-04-30T05:11:08;97927.56;;;8.13
79089;BMP280;68489;50.286;9.452;2023-04-30T05:13:33;97931.25;;;8.19
79089;BMP280;68489;50.286;9.452;2023-04-30T05:15:58;97928.91;;;8.25
79089;BMP280;68489;50.286;9.452;2023-04-30T05:18:23;97925.13;;;8.26
79089;BMP280;68489;50.286;9.452;2023-04-30T05:20:49;97924.69;;;8.27
79089;BMP280;68489;50.286;9.452;2023-04-30T05:23:14;97926.84;;;8.36
79089;BMP280;68489;50.286;9.452;2023-04-30T05:25:40;97925.63;;;8.40
79089;BMP280;68489;50.286;9.452;2023-04-30T05:28:05;97929.66;;;8.49
79089;BMP280;68489;50.286;9.452;2023-04-30T05:30:31;97924.72;;;8.51
79089;BMP280;68489;50.286;9.452;2023-04-30T05:32:56;97926.22;;;8.52
79089;BMP280;68489;50.286;9.452;2023-04-30T05:35:21;97933.72;;;8.57
79089;BMP280;68489;50.286;9.452;2023-04-30T05:37:47;97935.84;;;8.65
79089;BMP280;68489;50.286;9.452;2023-04-30T05:40:12;97928.88;;;8.75
79089;BMP280;68489;50.286;9.452;2023-04-30T05:42:38;97932.63;;;8.78
79089;BMP280;68489;50.286;9.452;2023-04-30T05:45:05;97927.59;;;8.83
79089;BMP280;68489;50.286;9.452;2023-04-30T05:47:31;97930.97;;;8.84
79089;BMP280;68489;50.286;9.452;2023-04-30T05:49:56;97928.69;;;8.86
79089;BMP280;68489;50.286;9.452;2023-04-30T05:52:22;97931.66;;;8.88
79089;BMP280;68489;50.286;9.452;2023-04-30T05:54:47;97929.06;;;8.84
79089;BMP280;68489;50.286;9.452;2023-04-30T05:57:12;97932.88;;;8.83
79089;BMP280;68489;50.286;9.452;2023-04-30T05:59:37;97927.16;;;8.85
79089;BMP280;68489;50.286;9.452;2023-04-30T06:02:03;97932.09;;;8.86
79089;BMP280;68489;50.286;9.452;2023-04-30T06:04:28;97925.88;;;8.93
79089;BMP280;68489;50.286;9.452;2023-04-30T06:06:53;97935.31;;;8.94
79089;BMP280;68489;50.286;9.452;2023-04-30T06:09:18;97929.25;;;8.97
79089;BMP280;68489;50.286;9.452;2023-04-30T06:11:44;97931.81;;;9.01
79089;BMP280;68489;50.286;9.452;2023-04-30T06:14:14;97934.03;;;9.02
79089;BMP280;68489;50.286;9.452;2023-04-30T06:16:39;97934.00;;;9.06
79089;BMP280;68489;50.286;9.452;2023-04-30T06:19:05;97937.06;;;9.04
79089;BMP280;68489;50.286;9.452;2023-04-30T06:21:30;97939.03;;;9.20
79089;BMP280;68489;50.286;9.452;2023-04-30T06:23:55;97932.63;;;9.18
79089;BMP280;68489;50.286;9.452;2023-04-30T06:26:21;97939.31;;;9.26
79089;BMP280;68489;50.286;9.452;2023-04-30T06:28:46;97938.00;;;9.34
79089;BMP280;68489;50.286;9.452;2023-04-30T06:31:11;97938.81;;;9.31
79089;BMP280;68489;50.286;9.452;2023-04-30T06:33:37;97939.50;;;9.35
79089;BMP280;68489;50.286;9.452;2023-04-30T06:36:02;97934.44;;;9.41
79089;BMP280;68489;50.286;9.452;2023-04-30T06:38:27;97936.91;;;9.51
79089;BMP280;68489;50.286;9.452;2023-04-30T06:40:53;97936.09;;;9.54
79089;BMP280;68489;50.286;9.452;2023-04-30T06:43:18;97937.56;;;9.55
79089;BMP280;68489;50.286;9.452;2023-04-30T06:45:43;97935.94;;;9.61
79089;BMP280;68489;50.286;9.452;2023-04-30T06:48:08;97929.84;;;9.81
79089;BMP280;68489;50.286;9.452;2023-04-30T06:50:34;97928.91;;;9.87
79089;BMP280;68489;50.286;9.452;2023-04-30T06:52:59;97939.16;;;9.89
79089;BMP280;68489;50.286;9.452;2023-04-30T06:55:25;97935.16;;;9.97
79089;BMP280;68489;50.286;9.452;2023-04-30T06:57:52;97937.31;;;10.02
79089;BMP280;68489;50.286;9.452;2023-04-30T07:00:18;97934.47;;;10.09
79089;BMP280;68489;50.286;9.452;2023-04-30T07:02:43;97938.94;;;10.16
79089;BMP280;68489;50.286;9.452;2023-04-30T07:05:11;97927.38;;;10.23
79089;BMP280;68489;50.286;9.452;2023-04-30T07:07:37;97929.84;;;10.30
79089;BMP280;68489;50.286;9.452;2023-04-30T07:10:02;97923.34;;;10.47
79089;BMP280;68489;50.286;9.452;2023-04-30T07:12:27;97932.81;;;10.48
79089;BMP280;68489;50.286;9.452;2023-04-30T07:14:53;97929.72;;;10.66
79089;BMP280;68489;50.286;9.452;2023-04-30T07:17:19;97935.28;;;10.72
79089;BMP280;68489;50.286;9.452;2023-04-30T07:19:44;97930.84;;;10.81
79089;BMP280;68489;50.286;9.452;2023-04-30T07:22:09;97928.00;;;11.01
79089;BMP280;68489;50.286;9.452;2023-04-30T07:24:35;97927.72;;;11.12
79089;BMP280;68489;50.286;9.452;2023-04-30T07:27:00;97934.78;;;11.31
79089;BMP280;68489;50.286;9.452;2023-04-30T07:29:28;97936.06;;;11.39
79089;BMP280;68489;50.286;9.452;2023-04-30T07:31:54;97933.03;;;11.54
79089;BMP280;68489;50.286;9.452;2023-04-30T07:34:20;97930.66;;;11.69
79089;BMP280;68489;50.286;9.452;2023-04-30T07:36:47;97934.38;;;11.84
79089;BMP280;68489;50.286;9.452;2023-04-30T07:39:12;97935.78;;;12.01
79089;BMP280;68489;50.286;9.452;2023-04-30T07:41:37;97934.88;;;12.17
79089;BMP280;68489;50.286;9.452;2023-04-30T07:44:03;97929.19;;;12.41
79089;BMP280;68489;50.286;9.452;2023-04-30T07:46:28;97933.84;;;12.49
79089;BMP280;68489;50.286;9.452;2023-04-30T07:48:53;97933.91;;;12.58
79089;BMP280;68489;50.286;9.452;2023-04-30T07:51:18;97930.69;;;12.63
79089;BMP280;68489;50.286;9.452;2023-04-30T07:53:44;97936.53;;;12.71
79089;BMP280;68489;50.286;9.452;2023-04-30T07:56:09;97938.38;;;12.83
79089;BMP280;68489;50.286;9.452;2023-04-30T07:58:34;97927.09;;;13.01
79089;BMP280;68489;50.286;9.452;2023-04-30T08:00:59;97935.41;;;13.03
79089;BMP280;68489;50.286;9.452;2023-04-30T08:03:25;97932.59;;;13.29
79089;BMP280;68489;50.286;9.452;2023-04-30T08:05:51;97939.00;;;13.40
79089;BMP280;68489;50.286;9.452;2023-04-30T08:08:16;97940.56;;;13.60
79089;BMP280;68489;50.286;9.452;2023-04-30T08:10:41;97947.59;;;13.76
79089;BMP280;68489;50.286;9.452;2023-04-30T08:13:07;97939.88;;;13.78
79089;BMP280;68489;50.286;9.452;2023-04-30T08:15:33;97945.00;;;14.03
79089;BMP280;68489;50.286;9.452;2023-04-30T08:17:58;97941.91;;;14.41
79089;BMP280;68489;50.286;9.452;2023-04-30T08:20:23;97944.13;;;14.70
79089;BMP280;68489;50.286;9.452;2023-04-30T08:22:48;97951.53;;;14.76
79089;BMP280;68489;50.286;9.452;2023-04-30T08:25:13;97942.56;;;14.97
79089;BMP280;68489;50.286;9.452;2023-04-30T08:27:39;97947.19;;;15.06
79089;BMP280;68489;50.286;9.452;2023-04-30T08:30:05;97943.81;;;15.29
79089;BMP280;68489;50.286;9.452;2023-04-30T08:32:34;97950.06;;;15.35
79089;BMP280;68489;50.286;9.452;2023-04-30T08:35:00;97943.44;;;15.45
79089;BMP280;68489;50.286;9.452;2023-04-30T08:37:25;97949.41;;;15.73
79089;BMP280;68489;50.286;9.452;2023-04-30T08:39:50;97937.63;;;15.80
79089;BMP280;68489;50.286;9.452;2023-04-30T08:42:16;97939.72;;;16.00
79089;BMP280;68489;50.286;9.452;2023-04-30T08:44:42;97931.34;;;16.07
79089;BMP280;68489;50.286;9.452;2023-04-30T08:47:10;97933.25;;;16.30
79089;BMP280;68489;50.286;9.452;2023-04-30T08:49:39;97935.09;;;16.83
79089;BMP280;68489;50.286;9.452;2023-04-30T08:52:04;97935.31;;;17.65
79089;BMP280;68489;50.286;9.452;2023-04-30T08:54:30;97935.72;;;17.99
79089;BMP280;68489;50.286;9.452;2023-04-30T08:56:58;97941.66;;;18.55
79089;BMP280;68489;50.286;9.452;2023-04-30T08:59:24;97940.13;;;19.11
79089;BMP280;68489;50.286;9.452;2023-04-30T09:01:49;97942.16;;;19.76
79089;BMP280;68489;50.286;9.452;2023-04-30T09:04:14;97938.78;;;19.98
79089;BMP280;68489;50.286;9.452;2023-04-30T09:06:39;97943.53;;;20.48
79089;BMP280;68489;50.286;9.452;2023-04-30T09:09:14;97935.28;;;21.32
79089;BMP280;68489;50.286;9.452;2023-04-30T09:11:40;97937.19;;;21.59
79089;BMP280;68489;50.286;9.452;2023-04-30T09:14:06;97938.78;;;21.21
79089;BMP280;68489;50.286;9.452;2023-04-30T09:16:46;97941.72;;;21.29
79089;BMP280;68489;50.286;9.452;2023-04-30T09:19:25;97942.19;;;21.85
79089;BMP280;68489;50.286;9.452;2023-04-30T09:21:51;97939.94;;;22.25
79089;BMP280;68489;50.286;9.452;2023-04-30T09:24:16;97935.34;;;22.74
79089;BMP280;68489;50.286;9.452;2023-04-30T09:26:42;97936.31;;;22.77
79089;BMP280;68489;50.286;9.452;2023-04-30T09:29:07;97938.91;;;23.12
79089;BMP280;68489;50.286;9.452;2023-04-30T09:31:37;97941.47;;;23.23
79089;BMP280;68489;50.286;9.452;2023-04-30T09:34:04;97947.72;;;23.18
79089;BMP280;68489;50.286;9.452;2023-04-30T09:36:30;97944.63;;;23.52
79089;BMP280;68489;50.286;9.452;2023-04-30T09:39:04;97943.28;;;24.41
79089;BMP280;68489;50.286;9.452;2023-04-30T09:41:29;97939.84;;;24.54
79089;BMP280;68489;50.286;9.452;2023-04-30T09:43:56;97933.25;;;24.50
79089;BMP280;68489;50.286;9.452;2023-04-30T09:46:32;97941.44;;;24.76
79089;BMP280;68489;50.286;9.452;2023-04-30T09:48:59;97933.59;;;25.12
79089;BMP280;68489;50.286;9.452;2023-04-30T09:51:25;97932.88;;;24.98
79089;BMP280;68489;50.286;9.452;2023-04-30T09:53:51;97934.84;;;24.98
79089;BMP280;68489;50.286;9.452;2023-04-30T09:56:21;97922.03;;;25.33
79089;BMP280;68489;50.286;9.452;2023-04-30T09:58:49;97923.72;;;25.22
79089;BMP280;68489;50.286;9.452;2023-04-30T10:01:16;97925.50;;;25.67
79089;BMP280;68489;50.286;9.452;2023-04-30T10:03:42;97918.81;;;25.55
79089;BMP280;68489;50.286;9.452;2023-04-30T10:06:11;97920.84;;;26.17
79089;BMP280;68489;50.286;9.452;2023-04-30T10:08:42;97916.19;;;26.33
79089;BMP280;68489;50.286;9.452;2023-04-30T10:11:09;97913.38;;;26.17
79089;BMP280;68489;50.286;9.452;2023-04-30T10:13:46;97905.19;;;26.46
79089;BMP280;68489;50.286;9.452;2023-04-30T10:19:23;97914.28;;;26.77
79089;BMP280;68489;50.286;9.452;2023-04-30T10:21:49;97912.72;;;27.48
79089;BMP280;68489;50.286;9.452;2023-04-30T10:24:17;97909.28;;;27.86
79089;BMP280;68489;50.286;9.452;2023-04-30T10:26:43;97908.69;;;28.41
79089;BMP280;68489;50.286;9.452;2023-04-30T10:29:09;97900.91;;;27.76
79089;BMP280;68489;50.286;9.452;2023-04-30T10:31:35;97900.16;;;28.06
79089;BMP280;68489;50.286;9.452;2023-04-30T10:37:17;97901.75;;;28.40
79089;BMP280;68489;50.286;9.452;2023-04-30T10:39:43;97883.72;;;28.84
79089;BMP280;68489;50.286;9.452;2023-04-30T10:42:09;97885.53;;;29.72
79089;BMP280;68489;50.286;9.452;2023-04-30T10:44:36;97886.75;;;29.53
79089;BMP280;68489;50.286;9.452;2023-04-30T10:47:03;97877.56;;;30.01
79089;BMP280;68489;50.286;9.452;2023-04-30T10:49:29;97877.25;;;29.97
79089;BMP280;68489;50.286;9.452;2023-04-30T10:51:58;97878.06;;;30.24
79089;BMP280;68489;50.286;9.452;2023-04-30T10:54:26;97871.00;;;30.65
79089;BMP280;68489;50.286;9.452;2023-04-30T10:56:53;97868.44;;;30.77
79089;BMP280;68489;50.286;9.452;2023-04-30T10:59:20;97854.56;;;30.75
79089;BMP280;68489;50.286;9.452;2023-04-30T11:01:56;97859.44;;;29.63
79089;BMP280;68489;50.286;9.452;2023-04-30T11:04:22;97854.13;;;30.51
79089;BMP280;68489;50.286;9.452;2023-04-30T11:06:54;97858.47;;;29.51
79089;BMP280;68489;50.286;9.452;2023-04-30T11:12:02;97857.56;;;30.69
79089;BMP280;68489;50.286;9.452;2023-04-30T11:14:30;97844.66;;;30.01
79089;BMP280;68489;50.286;9.452;2023-04-30T11:16:58;97844.16;;;30.12
79089;BMP280;68489;50.286;9.452;2023-04-30T11:19:23;97844.25;;;29.70
79089;BMP280;68489;50.286;9.452;2023-04-30T11:27:19;97846.25;;;30.21
79089;BMP280;68489;50.286;9.452;2023-04-30T11:29:44;97842.06;;;30.03
79089;BMP280;68489;50.286;9.452;2023-04-30T11:32:11;97843.78;;;30.86
79089;BMP280;68489;50.286;9.452;2023-04-30T11:34:36;97841.75;;;32.08
79089;BMP280;68489;50.286;9.452;2023-04-30T11:37:02;97846.50;;;32.08
79089;BMP280;68489;50.286;9.452;2023-04-30T11:39:27;97840.94;;;31.50
79089;BMP280;68489;50.286;9.452;2023-04-30T11:41:53;97839.28;;;31.83
79089;BMP280;68489;50.286;9.452;2023-04-30T11:44:36;97835.22;;;31.09
79089;BMP280;68489;50.286;9.452;2023-04-30T11:47:02;97839.28;;;30.54
79089;BMP280;68489;50.286;9.452;2023-04-30T11:49:28;97832.03;;;31.59
79089;BMP280;68489;50.286;9.452;2023-04-30T11:51:53;97830.44;;;32.14
79089;BMP280;68489;50.286;9.452;2023-04-30T11:54:18;97829.69;;;31.94
79089;BMP280;68489;50.286;9.452;2023-04-30T11:56:48;97819.19;;;32.50
79089;BMP280;68489;50.286;9.452;2023-04-30T11:59:13;97821.66;;;32.46
79089;BMP280;68489;50.286;9.452;2023-04-30T12:01:39;97813.34;;;31.96
79089;BMP280;68489;50.286;9.452;2023-04-30T12:04:05;97802.34;;;32.97
79089;BMP280;68489;50.286;9.452;2023-04-30T12:06:31;97811.50;;;32.90
79089;BMP280;68489;50.286;9.452;2023-04-30T12:08:58;97809.69;;;33.68
79089;BMP280;68489;50.286;9.452;2023-04-30T12:11:29;97808.06;;;33.86
79089;BMP280;68489;50.286;9.452;2023-04-30T12:14:05;97820.13;;;34.02
79089;BMP280;68489;50.286;9.452;2023-04-30T12:16:45;97814.19;;;33.52
79089;BMP280;68489;50.286;9.452;2023-04-30T12:19:15;97827.78;;;32.86
79089;BMP280;68489;50.286;9.452;2023-04-30T12:21:41;97813.91;;;33.26
79089;BMP280;68489;50.286;9.452;2023-04-30T12:24:15;97814.41;;;32.92
79089;BMP280;68489;50.286;9.452;2023-04-30T12:26:42;97806.63;;;33.31
79089;BMP280;68489;50.286;9.452;2023-04-30T12:29:14;97799.41;;;35.06
79089;BMP280;68489;50.286;9.452;2023-04-30T12:31:40;97797.53;;;34.50
79089;BMP280;68489;50.286;9.452;2023-04-30T12:34:10;97797.13;;;33.22
79089;BMP280;68489;50.286;9.452;2023-04-30T12:36:35;97797.56;;;32.97
79089;BMP280;68489;50.286;9.452;2023-04-30T12:39:09;97793.31;;;32.25
79089;BMP280;68489;50.286;9.452;2023-04-30T12:41:45;97792.09;;;31.87
79089;BMP280;68489;50.286;9.452;2023-04-30T12:44:22;97793.34;;;32.05
79089;BMP280;68489;50.286;9.452;2023-04-30T12:46:49;97793.41;;;30.65
79089;BMP280;68489;50.286;9.452;2023-04-30T12:49:24;97795.13;;;28.24
79089;BMP280;68489;50.286;9.452;2023-04-30T12:51:50;97791.19;;;26.88
79089;BMP280;68489;50.286;9.452;2023-04-30T12:54:26;97803.66;;;26.68
79089;BMP280;68489;50.286;9.452;2023-04-30T12:57:05;97802.25;;;28.20
79089;BMP280;68489;50.286;9.452;2023-04-30T12:59:33;97789.66;;;29.81
79089;BMP280;68489;50.286;9.452;2023-04-30T13:02:10;97786.44;;;31.75
79089;BMP280;68489;50.286;9.452;2023-04-30T13:04:37;97781.75;;;32.07
79089;BMP280;68489;50.286;9.452;2023-04-30T13:07:02;97778.09;;;31.08
79089;BMP280;68489;50.286;9.452;2023-04-30T13:09:29;97778.59;;;29.89
79089;BMP280;68489;50.286;9.452;2023-04-30T13:11:54;97777.25;;;28.63
79089;BMP280;68489;50.286;9.452;2023-04-30T13:14:19;97776.09;;;26.87
79089;BMP280;68489;50.286;9.452;2023-04-30T13:16:45;97770.59;;;26.00
79089;BMP280;68489;50.286;9.452;2023-04-30T13:19:10;97768.97;;;24.58
79089;BMP280;68489;50.286;9.452;2023-04-30T13:21:36;97760.59;;;23.90
79089;BMP280;68489;50.286;9.452;2023-04-30T13:24:01;97760.91;;;22.90
79089;BMP280;68489;50.286;9.452;2023-04-30T13:26:27;97760.25;;;22.41
79089;BMP280;68489;50.286;9.452;2023-04-30T13:28:52;97751.97;;;22.33
79089;BMP280;68489;50.286;9.452;2023-04-30T13:31:17;97750.47;;;22.08
79089;BMP280;68489;50.286;9.452;2023-04-30T13:33:43;97763.03;;;21.87
79089;BMP280;68489;50.286;9.452;2023-04-30T13:36:08;97753.44;;;22.78
79089;BMP280;68489;50.286;9.452;2023-04-30T13:38:33;97759.03;;;24.95
79089;BMP280;68489;50.286;9.452;2023-04-30T13:40:58;97751.75;;;26.45
79089;BMP280;68489;50.286;9.452;2023-04-30T13:43:24;97754.19;;;26.64
79089;BMP280;68489;50.286;9.452;2023-04-30T13:45:50;97751.75;;;26.02
79089;BMP280;68489;50.286;9.452;2023-04-30T13:48:15;97750.41;;;24.36
79089;BMP280;68489;50.286;9.452;2023-04-30T13:50:40;97753.94;;;24.44
79089;BMP280;68489;50.286;9.452;2023-04-30T13:53:06;97750.66;;;26.05
79089;BMP280;68489;50.286;9.452;2023-04-30T13:55:31;97741.00;;;27.45
79089;BMP280;68489;50.286;9.452;2023-04-30T13:57:57;97744.28;;;28.86
79089;BMP280;68489;50.286;9.452;2023-04-30T14:00:22;97743.34;;;30.47
79089;BMP280;68489;50.286;9.452;2023-04-30T14:02:47;97738.09;;;32.42
79089;BMP280;68489;50.286;9.452;2023-04-30T14:05:13;97727.84;;;31.73
79089;BMP280;68489;50.286;9.452;2023-04-30T14:07:39;97729.34;;;30.52
79089;BMP280;68489;50.286;9.452;2023-04-30T14:10:05;97728.78;;;28.81
79089;BMP280;68489;50.286;9.452;2023-04-30T14:12:30;97732.09;;;27.29
79089;BMP280;68489;50.286;9.452;2023-04-30T14:14:56;97724.44;;;25.94
79089;BMP280;68489;50.286;9.452;2023-04-30T14:17:21;97734.16;;;26.10
79089;BMP280;68489;50.286;9.452;2023-04-30T14:19:47;97728.78;;;26.26
79089;BMP280;68489;50.286;9.452;2023-04-30T14:22:12;97736.09;;;25.45
79089;BMP280;68489;50.286;9.452;2023-04-30T14:24:37;97732.00;;;24.02
79089;BMP280;68489;50.286;9.452;2023-04-30T14:27:03;97733.97;;;22.55
79089;BMP280;68489;50.286;9.452;2023-04-30T14:29:29;97735.78;;;22.03
79089;BMP280;68489;50.286;9.452;2023-04-30T14:31:54;97729.66;;;21.43
79089;BMP280;68489;50.286;9.452;2023-04-30T14:34:19;97726.88;;;21.13
79089;BMP280;68489;50.286;9.452;2023-04-30T14:36:45;97732.47;;;20.79